Time;durP1;ratioP1;P1;durP2;ratioP2;P2;SDS_P1;SDS_P2;PMS_P1;PMS_P2;Temp;Humidity;BMP_temperature;BMP_pressure;BME280_temperature;BME280_humidity;BME280_pressure;Samples;Min_cycle;Max_cycle;Signal;HPM_P1;HPM_P2
2021/06/26 00:00:55;;;;;;;29.50;15.47;;;14.50;1.00;;;;;;5056655;28;20417;-74
2021/06/26 00:03:23;;;;;;;27.57;16.37;;;14.50;1.00;;;;;;5054938;28;20434;-74
2021/06/26 00:05:49;;;;;;;31.00;16.93;;;;;;;;;;5053930;28;20437;-74
2021/06/26 00:08:16;;;;;;;26.00;15.43;;;;;;;;;;5071081;28;20524;-74
2021/06/26 00:10:43;;;;;;;26.77;14.97;;;14.40;1.00;;;;;;5063424;28;20456;-74
2021/06/26 00:13:14;;;;;;;26.50;14.60;;;14.40;1.00;;;;;;5053943;28;20432;-74
2021/06/26 00:15:40;;;;;;;24.80;15.00;;;14.40;1.00;;;;;;5063605;28;20425;-74
2021/06/26 00:18:13;;;;;;;28.03;14.97;;;14.30;1.00;;;;;;5069744;28;20409;-75
2021/06/26 00:20:39;;;;;;;29.63;16.70;;;14.30;1.00;;;;;;5060782;28;20194;-74
2021/06/26 00:23:07;;;;;;;28.87;15.83;;;14.30;1.00;;;;;;5053959;28;20406;-75
2021/06/26 00:25:33;;;;;;;26.20;16.50;;;14.30;1.00;;;;;;5053803;28;20721;-75
2021/06/26 00:28:01;;;;;;;28.70;16.43;;;14.30;1.00;;;;;;5053871;28;20409;-75
2021/06/26 00:30:27;;;;;;;37.20;17.50;;;14.20;1.00;;;;;;5054319;28;20196;-75
2021/06/26 00:32:53;;;;;;;26.63;15.87;;;14.20;1.00;;;;;;5053444;28;20753;-75
2021/06/26 00:35:19;;;;;;;27.87;15.93;;;14.20;1.00;;;;;;5053416;28;20422;-75
2021/06/26 00:37:45;;;;;;;44.63;17.87;;;14.20;1.00;;;;;;5070387;28;20409;-75
2021/06/26 00:40:13;;;;;;;35.93;16.27;;;14.10;1.00;;;;;;5063082;28;20408;-74
2021/06/26 00:42:42;;;;;;;38.03;15.63;;;14.20;1.00;;;;;;5066856;28;20216;-75
2021/06/26 00:45:14;;;;;;;33.30;16.77;;;14.10;1.00;;;;;;5053402;28;20393;-75
2021/06/26 00:47:40;;;;;;;34.37;17.13;;;14.10;1.00;;;;;;5053208;28;20426;-75
2021/06/26 00:50:14;;;;;;;26.03;14.67;;;14.10;1.00;;;;;;5053219;28;20414;-75
2021/06/26 00:52:49;;;;;;;39.10;15.97;;;14.10;1.00;;;;;;5053513;28;20376;-74
2021/06/26 00:55:19;;;;;;;26.07;15.37;;;14.00;1.00;;;;;;5053165;28;20401;-74
2021/06/26 00:57:49;;;;;;;27.03;16.17;;;14.00;1.00;;;;;;5052981;28;20425;-74
2021/06/26 01:00:16;;;;;;;29.50;16.10;;;14.00;1.00;;;;;;5052796;28;20396;-74
2021/06/26 01:02:43;;;;;;;33.80;15.40;;;14.00;1.00;;;;;;5072112;28;20428;-74
2021/06/26 01:05:10;;;;;;;26.60;15.40;;;14.00;1.00;;;;;;5070959;28;20401;-74
2021/06/26 01:07:35;;;;;;;25.73;14.83;;;14.00;1.00;;;;;;5073079;28;20436;-74
2021/06/26 01:10:03;;;;;;;29.20;15.93;;;13.90;1.00;;;;;;5073061;28;20389;-74
2021/06/26 01:12:31;;;;;;;29.63;16.53;;;13.90;1.00;;;;;;5073185;28;20189;-74
2021/06/26 01:14:57;;;;;;;24.43;14.67;;;;;;;;;;5070821;28;20372;-74
2021/06/26 01:17:23;;;;;;;29.80;15.57;;;;;;;;;;5072894;28;20904;-74
2021/06/26 01:19:49;;;;;;;28.97;15.47;;;13.80;1.00;;;;;;5067467;28;20417;-74
2021/06/26 01:22:21;;;;;;;29.20;15.60;;;13.80;1.00;;;;;;5057291;28;20489;-74
2021/06/26 01:25:01;;;;;;;25.60;14.70;;;13.80;1.00;;;;;;5056443;28;20656;-75
2021/06/26 01:27:27;;;;;;;30.80;15.57;;;13.70;1.00;;;;;;5066306;28;20901;-75
2021/06/26 01:30:01;;;;;;;27.93;15.50;;;13.70;1.00;;;;;;5056867;28;20396;-75
2021/06/26 01:32:31;;;;;;;28.77;14.60;;;13.70;1.00;;;;;;5055269;28;20196;-75
2021/06/26 01:34:57;;;;;;;28.70;14.30;;;13.70;1.00;;;;;;5058174;28;20747;-75
2021/06/26 01:37:23;;;;;;;25.40;14.33;;;;;;;;;;5057975;28;20420;-75
2021/06/26 01:39:49;;;;;;;29.27;15.30;;;13.60;1.00;;;;;;5057105;28;20231;-75
2021/06/26 01:42:15;;;;;;;24.13;14.40;;;;;;;;;;5056881;28;20509;-75
2021/06/26 01:44:40;;;;;;;25.40;14.83;;;13.60;1.00;;;;;;5056569;28;20522;-75
2021/06/26 01:47:08;;;;;;;31.53;14.50;;;13.60;1.00;;;;;;5056548;28;20398;-75
2021/06/26 01:49:38;;;;;;;27.23;14.57;;;13.60;1.00;;;;;;5056424;28;20254;-75
2021/06/26 01:52:09;;;;;;;29.83;15.20;;;13.60;1.00;;;;;;5056401;28;20454;-75
2021/06/26 01:54:38;;;;;;;24.30;14.40;;;13.50;1.00;;;;;;5056861;28;20512;-74
2021/06/26 01:57:07;;;;;;;30.93;15.20;;;13.50;1.00;;;;;;5056498;28;20430;-74
2021/06/26 01:59:33;;;;;;;28.63;15.10;;;13.50;1.00;;;;;;5057752;28;20418;-74
2021/06/26 02:01:59;;;;;;;28.50;14.50;;;13.50;1.00;;;;;;5075692;28;20419;-74
2021/06/26 02:04:31;;;;;;;29.53;15.33;;;13.40;1.00;;;;;;5061080;28;20771;-74
2021/06/26 02:06:57;;;;;;;24.00;13.90;;;13.40;1.00;;;;;;5057735;28;20426;-74
2021/06/26 02:09:23;;;;;;;24.00;14.33;;;;;;;;;;5056597;28;20733;-75
2021/06/26 02:11:55;;;;;;;24.87;14.93;;;13.40;1.00;;;;;;5055335;28;20562;-75
2021/06/26 02:14:21;;;;;;;25.03;14.40;;;13.40;1.00;;;;;;5056135;28;20433;-75
2021/06/26 02:16:49;;;;;;;26.03;14.93;;;13.30;1.00;;;;;;5071565;28;20417;-75
2021/06/26 02:19:15;;;;;;;31.83;15.10;;;13.40;1.00;;;;;;5073225;28;20168;-74
2021/06/26 02:22:30;;;;;;;30.03;14.83;;;13.30;1.00;;;;;;5055857;28;20478;-74
2021/06/26 02:24:56;;;;;;;22.50;14.57;;;13.20;1.00;;;;;;5055855;28;20191;-75
2021/06/26 02:27:22;;;;;;;28.60;13.83;;;13.20;1.00;;;;;;5056494;28;20468;-74
2021/06/26 02:29:48;;;;;;;29.47;14.70;;;;;;;;;;5055666;28;20160;-74
2021/06/26 02:32:19;;;;;;;25.90;14.67;;;13.20;1.00;;;;;;5054314;28;20704;-74
2021/06/26 02:34:44;;;;;;;25.17;14.00;;;13.20;1.00;;;;;;5075405;28;20792;-74
2021/06/26 02:37:10;;;;;;;26.90;14.80;;;13.20;1.00;;;;;;5073533;28;20413;-74
2021/06/26 02:39:37;;;;;;;22.90;14.17;;;13.20;1.00;;;;;;5075401;28;20632;-75
2021/06/26 02:42:07;;;;;;;28.47;14.20;;;13.10;1.00;;;;;;5075779;28;20172;-74
2021/06/26 02:44:37;;;;;;;29.80;14.80;;;13.10;1.00;;;;;;5074779;28;20456;-74
2021/06/26 02:47:24;;;;;;;31.97;15.97;;;13.10;1.00;;;;;;5065685;28;20462;-74
2021/06/26 02:49:50;;;;;;;30.60;14.47;;;13.10;1.00;;;;;;5066233;28;20409;-75
2021/06/26 02:52:19;;;;;;;20.93;13.73;;;13.10;1.00;;;;;;5062900;28;20425;-74
2021/06/26 02:54:50;;;;;;;20.93;13.23;;;13.00;1.00;;;;;;5055746;28;20183;-75
2021/06/26 02:57:19;;;;;;;27.13;14.00;;;13.00;1.00;;;;;;5054916;28;20377;-75
2021/06/26 02:59:49;;;;;;;28.73;14.87;;;12.90;1.00;;;;;;5054900;28;20449;-75
2021/06/26 03:02:15;;;;;;;27.40;14.00;;;12.90;1.00;;;;;;5061761;28;20471;-75
2021/06/26 03:04:49;;;;;;;28.50;13.70;;;12.90;1.00;;;;;;5075634;28;20455;-74
2021/06/26 03:07:14;;;;;;;25.63;14.77;;;12.90;1.00;;;;;;5068740;28;20942;-75
2021/06/26 03:09:49;;;;;;;26.83;14.67;;;12.90;1.00;;;;;;5055061;28;20394;-75
2021/06/26 03:12:37;;;;;;;25.40;13.90;;;12.90;1.00;;;;;;5055018;28;20198;-74
2021/06/26 03:15:03;;;;;;;26.00;15.17;;;12.90;1.00;;;;;;5055159;28;20418;-74
2021/06/26 03:17:37;;;;;;;27.43;15.20;;;12.80;1.00;;;;;;5070685;28;20399;-74
2021/06/26 03:20:05;;;;;;;42.33;14.10;;;12.80;1.00;;;;;;5063944;28;20492;-74
2021/06/26 03:22:31;;;;;;;25.50;14.50;;;12.80;1.00;;;;;;5057186;28;20476;-75
2021/06/26 03:24:57;;;;;;;27.30;14.20;;;12.80;1.00;;;;;;5055040;28;20390;-74
2021/06/26 03:27:23;;;;;;;31.87;14.53;;;12.80;1.00;;;;;;5054216;28;20410;-74
2021/06/26 03:30:01;;;;;;;30.50;13.83;;;12.80;1.00;;;;;;5054837;28;20163;-75
2021/06/26 03:32:31;;;;;;;23.97;14.17;;;12.80;1.00;;;;;;5054473;28;20472;-74
2021/06/26 03:35:02;;;;;;;25.17;14.00;;;12.80;1.00;;;;;;5054481;28;20407;-74
2021/06/26 03:37:31;;;;;;;25.27;13.97;;;12.80;1.00;;;;;;5054073;28;20410;-75
2021/06/26 03:40:01;;;;;;;27.67;14.50;;;12.80;1.00;;;;;;5054590;28;20837;-74
2021/06/26 03:42:26;;;;;;;23.80;14.17;;;12.80;1.00;;;;;;5055388;28;20627;-74
2021/06/26 03:44:55;;;;;;;33.03;13.47;;;12.80;1.00;;;;;;5054133;28;20936;-74
2021/06/26 03:47:21;;;;;;;29.00;14.93;;;;;;;;;;5053932;28;20195;-74
2021/06/26 03:49:49;;;;;;;22.57;14.30;;;12.90;1.00;;;;;;5054355;28;20497;-75
2021/06/26 03:52:25;;;;;;;30.10;14.57;;;12.90;1.00;;;;;;5053958;28;20442;-74
2021/06/26 03:54:55;;;;;;;20.13;12.80;;;12.90;1.00;;;;;;5055187;28;20448;-74
2021/06/26 03:57:25;;;;;;;29.47;13.73;;;12.90;1.00;;;;;;5054454;28;20398;-75
2021/06/26 04:00:13;;;;;;;27.80;12.80;;;12.90;1.00;;;;;;5057772;28;20431;-77
2021/06/26 04:02:38;;;;;;;26.97;13.77;;;13.00;1.00;;;;;;5054172;28;20505;-74
2021/06/26 04:05:05;;;;;;;25.43;14.07;;;13.00;1.00;;;;;;5053916;28;20853;-74
2021/06/26 04:07:30;;;;;;;24.17;14.10;;;13.00;1.00;;;;;;5054040;28;20183;-74
2021/06/26 04:10:01;;;;;;;26.00;14.80;;;13.10;1.00;;;;;;5055021;28;20422;-74
2021/06/26 04:12:27;;;;;;;37.60;16.67;;;;;;;;;;5072324;28;20202;-74
2021/06/26 04:14:55;;;;;;;30.90;15.97;;;13.20;1.00;;;;;;5067122;28;20947;-74
2021/06/26 04:17:31;;;;;;;35.73;14.33;;;13.20;1.00;;;;;;5073973;28;20421;-74
2021/06/26 04:19:56;;;;;;;25.50;14.27;;;13.30;1.00;;;;;;5053948;28;20959;-74
2021/06/26 04:22:22;;;;;;;23.87;14.10;;;13.40;1.00;;;;;;5053642;28;20450;-74
2021/06/26 04:24:48;;;;;;;27.03;13.93;;;13.40;1.00;;;;;;5054129;28;20164;-74
2021/06/26 04:27:14;;;;;;;31.40;15.00;;;13.40;1.00;;;;;;5053673;28;20209;-74
2021/06/26 04:29:39;;;;;;;23.73;14.30;;;13.50;1.00;;;;;;5058664;28;20657;-74
2021/06/26 04:32:07;;;;;;;34.07;14.13;;;13.60;1.00;;;;;;5053672;28;20188;-74
2021/06/26 04:34:33;;;;;;;29.40;14.47;;;13.60;1.00;;;;;;5059137;28;20172;-74
2021/06/26 04:36:59;;;;;;;32.93;15.07;;;13.70;1.00;;;;;;5066330;28;20414;-74
2021/06/26 04:39:24;;;;;;;26.13;13.63;;;13.70;1.00;;;;;;5053709;28;20467;-74
2021/06/26 04:41:50;;;;;;;20.83;14.07;;;13.80;1.00;;;;;;5053670;28;20171;-75
2021/06/26 04:44:19;;;;;;;24.60;14.13;;;13.90;1.00;;;;;;5053599;28;20168;-75
2021/06/26 04:47:24;;;;;;;24.13;14.20;;;13.90;1.00;;;;;;5053302;28;20661;-81
2021/06/26 04:53:13;;;;;;;31.83;13.90;;;14.10;1.00;;;;;;5059683;28;20514;-74
2021/06/26 04:55:39;;;;;;;27.30;15.57;;;14.20;1.00;;;;;;5073961;28;20424;-74
2021/06/26 04:58:05;;;;;;;24.93;14.63;;;14.30;1.00;;;;;;5070290;28;20380;-74
2021/06/26 05:00:37;;;;;;;28.03;15.93;;;14.40;1.00;;;;;;5054565;28;20176;-74
2021/06/26 05:03:13;;;;;;;33.30;15.90;;;14.40;1.00;;;;;;5058823;28;20418;-74
2021/06/26 05:05:39;;;;;;;35.13;16.33;;;;;;;;;;5052774;28;20911;-74
2021/06/26 05:08:05;;;;;;;28.10;15.03;;;14.70;1.00;;;;;;5057761;28;20898;-74
2021/06/26 05:10:43;;;;;;;31.97;16.83;;;14.80;1.00;;;;;;5053170;28;20373;-74
2021/06/26 05:13:09;;;;;;;30.40;16.97;;;14.90;1.00;;;;;;5053195;28;20671;-74
2021/06/26 05:15:38;;;;;;;33.47;16.70;;;15.00;1.00;;;;;;5053111;28;20477;-74
2021/06/26 05:18:07;;;;;;;28.63;16.33;;;15.10;1.00;;;;;;5052602;28;20568;-75
2021/06/26 05:20:33;;;;;;;30.10;15.70;;;15.20;1.00;;;;;;5052778;28;20373;-74
2021/06/26 05:23:27;;;;;;;28.37;16.70;;;15.20;1.00;;;;;;5053096;28;20385;-75
2021/06/26 05:25:53;;;;;;;28.13;16.03;;;15.40;1.00;;;;;;5052925;28;20601;-74
2021/06/26 05:28:31;;;;;;;28.27;16.10;;;15.50;1.00;;;;;;5052599;28;20456;-75
2021/06/26 05:30:57;;;;;;;33.40;18.40;;;;;;;;;;5073102;28;20189;-75
2021/06/26 05:33:23;;;;;;;28.10;17.03;;;15.70;1.00;;;;;;5072724;28;20487;-75
2021/06/26 05:36:02;;;;;;;30.60;16.77;;;15.70;1.00;;;;;;5070436;28;20423;-74
2021/06/26 05:38:37;;;;;;;32.43;16.40;;;15.80;1.00;;;;;;5073005;28;20618;-74
2021/06/26 05:41:03;;;;;;;25.33;15.90;;;16.00;1.00;;;;;;5071307;28;21291;-74
2021/06/26 05:43:28;;;;;;;32.37;18.70;;;16.10;1.00;;;;;;5072882;28;20403;-74
2021/06/26 05:45:54;;;;;;;45.97;20.47;;;16.20;1.00;;;;;;5072553;28;20607;-74
2021/06/26 05:48:20;;;;;;;38.63;19.93;;;16.30;1.00;;;;;;5069394;28;20234;-75
2021/06/26 05:50:55;;;;;;;35.23;18.70;;;16.40;1.00;;;;;;5052704;28;20714;-75
2021/06/26 05:53:21;;;;;;;37.20;18.87;;;16.50;1.00;;;;;;5052647;28;20175;-74
2021/06/26 05:55:57;;;;;;;35.30;18.93;;;;;;;;;;5052558;28;20769;-74
2021/06/26 05:58:30;;;;;;;33.77;19.27;;;16.80;1.00;;;;;;5052768;28;20382;-74
2021/06/26 06:00:57;;;;;;;33.70;17.43;;;16.90;1.00;;;;;;5051573;28;20409;-74
2021/06/26 06:03:25;;;;;;;34.33;19.20;;;17.00;1.00;;;;;;5052205;28;20414;-75
2021/06/26 06:05:51;;;;;;;39.87;21.00;;;17.20;1.00;;;;;;5053106;28;20460;-75
2021/06/26 06:08:18;;;;;;;37.90;19.20;;;17.20;1.00;;;;;;5055606;28;20799;-75
2021/06/26 06:10:49;;;;;;;43.03;19.70;;;17.40;1.00;;;;;;5056363;28;20462;-74
2021/06/26 06:13:25;;;;;;;30.53;18.60;;;17.40;1.00;;;;;;5056317;28;20490;-75
2021/06/26 06:15:55;;;;;;;31.50;16.80;;;17.50;1.00;;;;;;5056231;28;20902;-75
2021/06/26 06:18:21;;;;;;;26.37;17.30;;;17.60;1.00;;;;;;5075767;28;20407;-75
2021/06/26 06:20:47;;;;;;;36.57;18.03;;;17.80;1.00;;;;;;5056130;28;20424;-75
2021/06/26 06:23:19;;;;;;;28.10;16.27;;;17.80;1.00;;;;;;5067208;28;20263;-75
2021/06/26 06:25:45;;;;;;;20.53;13.33;;;18.00;1.00;;;;;;5063057;28;20734;-75
2021/06/26 06:28:37;;;;;;;26.00;13.53;;;18.10;99.90;;;;;;5055992;28;20416;-75
2021/06/26 06:31:03;;;;;;;35.10;14.60;;;18.20;99.90;;;;;;5059373;28;20493;-75
2021/06/26 06:33:29;;;;;;;21.20;13.07;;;18.30;99.90;;;;;;5069703;28;20418;-75
2021/06/26 06:35:55;;;;;;;21.60;13.20;;;;;;;;;;5076043;28;20404;-75
2021/06/26 06:38:21;;;;;;;24.50;13.33;;;18.50;99.90;;;;;;5075567;28;20366;-75
2021/06/26 06:40:47;;;;;;;17.30;12.57;;;;;;;;;;5074317;28;20477;-74
2021/06/26 06:43:13;;;;;;;22.30;12.70;;;18.70;99.90;;;;;;5065150;28;20425;-74
2021/06/26 06:45:40;;;;;;;18.63;12.70;;;18.70;99.90;;;;;;5055691;28;20428;-74
2021/06/26 06:48:06;;;;;;;19.53;12.30;;;18.90;99.90;;;;;;5074940;28;20451;-74
2021/06/26 06:50:43;;;;;;;20.57;12.80;;;19.00;99.90;;;;;;5075137;28;20439;-74
2021/06/26 06:53:13;;;;;;;17.40;11.60;;;19.20;99.90;;;;;;5065122;28;20421;-74
2021/06/26 06:55:58;;;;;;;21.60;11.57;;;19.20;99.90;;;;;;5055929;28;21034;-79
2021/06/26 06:58:37;;;;;;;18.53;11.87;;;19.30;99.90;;;;;;5071258;28;20552;-81
2021/06/26 07:01:25;;;;;;;15.93;10.73;;;19.40;99.90;;;;;;5074067;28;20461;-80
2021/06/26 07:04:13;;;;;;;17.43;10.70;;;19.50;99.90;;;;;;5074840;28;20479;-79
2021/06/26 07:06:39;;;;;;;15.20;11.07;;;;;;;;;;5065562;28;20403;-80
2021/06/26 07:09:05;;;;;;;17.00;10.63;;;19.80;99.90;;;;;;5053615;28;20895;-79
2021/06/26 07:11:30;;;;;;;17.67;10.00;;;19.80;99.90;;;;;;5055984;28;20518;-79
2021/06/26 07:14:07;;;;;;;16.53;10.67;;;20.00;99.90;;;;;;5054622;28;20775;-79
2021/06/26 07:16:33;;;;;;;15.10;10.10;;;20.10;99.90;;;;;;5057211;28;20197;-78
2021/06/26 07:19:01;;;;;;;22.80;9.80;;;20.20;99.90;;;;;;5054174;28;20402;-78
2021/06/26 07:21:27;;;;;;;21.70;11.53;;;20.20;99.90;;;;;;5054463;28;20163;-79
2021/06/26 07:24:07;;;;;;;18.23;10.47;;;20.30;99.90;;;;;;5054317;28;20959;-79
2021/06/26 07:27:18;;;;;;;13.83;9.83;;;20.50;99.90;;;;;;5055073;28;20174;-77
2021/06/26 07:33:25;;;;;;;17.70;10.33;;;20.80;99.90;;;;;;5062458;28;20449;-77
2021/06/26 07:36:05;;;;;;;15.60;10.50;;;20.90;99.90;;;;;;5054788;28;20434;-77
2021/06/26 07:38:30;;;;;;;18.33;10.27;;;21.00;99.90;;;;;;5053211;28;20411;-77
2021/06/26 07:41:19;;;;;;;12.70;10.07;;;21.00;99.90;;;;;;5054241;28;20393;-77
2021/06/26 07:43:45;;;;;;;15.93;9.10;;;21.10;99.90;;;;;;5054267;28;20247;-76
2021/06/26 07:46:11;;;;;;;17.03;9.90;;;21.20;99.90;;;;;;5069600;28;20452;-76
2021/06/26 07:48:43;;;;;;;19.87;9.23;;;21.40;99.90;;;;;;5053737;28;20408;-76
2021/06/26 07:51:14;;;;;;;14.30;9.23;;;21.40;99.90;;;;;;5054166;28;20504;-77
2021/06/26 07:54:01;;;;;;;12.00;8.87;;;21.50;99.90;;;;;;5067461;28;20432;-76
2021/06/26 07:56:29;;;;;;;17.00;9.43;;;21.50;99.90;;;;;;5073788;28;20407;-76
2021/06/26 07:58:55;;;;;;;13.53;9.03;;;21.70;99.90;;;;;;5058351;28;20525;-80
2021/06/26 08:01:21;;;;;;;17.33;9.33;;;21.80;99.90;;;;;;5053940;28;20432;-80
2021/06/26 08:03:49;;;;;;;11.33;8.30;;;21.80;99.90;;;;;;5070094;28;20210;-79
2021/06/26 08:06:25;;;;;;;16.77;9.87;;;22.00;99.90;;;;;;5073677;28;20768;-80
2021/06/26 08:09:01;;;;;;;14.33;8.67;;;22.10;99.90;;;;;;5072882;28;20572;-74
2021/06/26 08:11:54;;;;;;;10.50;8.37;;;;;;;;;;5072828;28;20454;-75
2021/06/26 08:14:20;;;;;;;21.20;9.47;;;22.30;99.90;;;;;;5065917;28;20745;-75
2021/06/26 08:16:46;;;;;;;12.67;8.23;;;22.30;99.90;;;;;;5067596;28;20414;-75
2021/06/26 08:19:19;;;;;;;11.70;8.57;;;22.50;99.90;;;;;;5071792;28;20517;-75
2021/06/26 08:21:49;;;;;;;12.13;8.83;;;22.60;99.90;;;;;;5073692;28;20505;-76
2021/06/26 08:24:15;;;;;;;13.53;9.30;;;22.70;99.90;;;;;;5073861;28;20425;-75
2021/06/26 08:26:43;;;;;;;10.77;8.37;;;22.80;99.90;;;;;;5055123;28;20450;-76
2021/06/26 08:33:01;;;;;;;71.67;18.73;;;22.70;99.90;;;;;;5061904;28;20486;-87
2021/06/26 08:38:49;;;;;;;15.53;8.23;;;22.90;99.90;;;;;;5071815;28;20408;-85
2021/06/26 08:45:08;;;;;;;10.93;6.00;;;23.20;99.90;;;;;;5073933;28;20372;-86
2021/06/26 08:48:24;;;;;;;7.50;6.10;;;23.20;99.90;;;;;;5063041;28;20429;-86
2021/06/26 09:08:13;;;;;;;16.87;7.97;;;24.10;99.90;;;;;;5054172;28;20430;-85
2021/06/26 09:10:40;;;;;;;8.67;5.73;;;24.30;99.90;;;;;;5052983;28;20431;-79
2021/06/26 09:16:51;;;;;;;5.83;5.20;;;24.80;99.90;;;;;;5053820;28;20427;-78
2021/06/26 09:19:17;;;;;;;22.03;5.57;;;25.00;99.90;;;;;;5052874;28;20396;-78
2021/06/26 09:22:25;;;;;;;12.07;5.90;;;25.00;99.90;;;;;;5066171;28;20423;-78
2021/06/26 09:25:45;;;;;;;9.27;4.50;;;25.10;99.90;;;;;;5072359;28;20246;-78
2021/06/26 09:28:24;;;;;;;7.43;5.57;;;25.40;99.90;;;;;;5051159;28;20882;-76
2021/06/26 09:31:27;;;;;;;8.30;5.37;;;25.60;99.90;;;;;;5036136;28;20908;-77
2021/06/26 09:33:58;;;;;;;11.30;6.23;;;25.50;99.90;;;;;;5030531;28;20510;-76
2021/06/26 09:36:26;;;;;;;8.17;5.60;;;25.50;99.90;;;;;;5030302;28;20582;-76
2021/06/26 09:39:06;;;;;;;9.20;5.70;;;25.20;99.90;;;;;;5030982;28;20428;-76
2021/06/26 09:41:55;;;;;;;13.37;6.07;;;25.10;99.90;;;;;;5028050;28;20432;-76
2021/06/26 09:44:25;;;;;;;9.17;5.70;;;25.00;99.90;;;;;;5016908;28;20431;-76
2021/06/26 09:47:07;;;;;;;8.93;5.73;;;25.00;99.90;;;;;;5017974;28;20413;-76
2021/06/26 09:49:33;;;;;;;11.30;5.60;;;;;;;;;;5034306;28;20480;-76
2021/06/26 09:52:04;;;;;;;9.93;5.53;;;25.10;99.90;;;;;;5027529;28;20984;-77
2021/06/26 09:54:31;;;;;;;9.60;5.20;;;25.10;99.90;;;;;;5022177;28;20441;-77
2021/06/26 09:57:01;;;;;;;10.97;5.80;;;25.20;99.90;;;;;;5027912;28;20438;-79
2021/06/26 09:59:49;;;;;;;14.70;5.93;;;25.30;99.90;;;;;;5022733;28;20421;-78
2021/06/26 10:03:01;;;;;;;8.07;5.17;;;25.10;99.90;;;;;;5014314;28;20426;-78
2021/06/26 10:05:38;;;;;;;8.23;5.57;;;25.00;99.90;;;;;;5014972;28;20913;-80
2021/06/26 10:08:15;;;;;;;9.50;5.30;;;25.00;99.90;;;;;;5038014;28;20428;-78
2021/06/26 10:11:36;;;;;;;14.03;6.27;;;24.90;99.90;;;;;;5056046;28;20779;-78
2021/06/26 10:17:44;;;;;;;10.83;5.60;;;25.00;99.90;;;;;;5058621;28;20416;-75
2021/06/26 10:20:37;;;;;;;8.57;4.90;;;25.20;99.90;;;;;;5075945;28;20907;-75
2021/06/26 10:27:01;;;;;;;12.13;5.00;;;25.70;99.90;;;;;;5075672;28;20458;-77
2021/06/26 10:29:32;;;;;;;5.07;4.60;;;26.20;99.90;;;;;;5076028;28;20437;-73
2021/06/26 10:32:13;;;;;;;7.13;4.00;;;26.30;99.90;;;;;;5069118;28;20546;-73
2021/06/26 10:35:24;;;;;;;4.50;4.10;;;26.90;99.90;;;;;;5055831;28;20413;-78
2021/06/26 10:38:10;;;;;;;8.70;4.60;;;27.30;99.90;;;;;;5058051;28;20428;-77
2021/06/26 10:41:14;;;;;;;4.80;3.90;;;27.20;99.90;;;;;;5075350;28;20381;-77
2021/06/26 10:47:01;;;;;;;5.70;4.30;;;26.80;99.90;;;;;;5074197;28;20484;-77
2021/06/26 10:49:44;;;;;;;9.03;4.60;;;26.90;99.90;;;;;;5075142;28;20439;-77
2021/06/26 10:52:49;;;;;;;6.67;4.70;;;26.90;99.90;;;;;;5059887;28;20193;-77
2021/06/26 10:55:38;;;;;;;6.27;4.30;;;26.90;99.90;;;;;;5071112;28;20433;-77
2021/06/26 10:58:07;;;;;;;4.87;4.37;;;26.90;99.90;;;;;;5064982;28;20421;-77
2021/06/26 11:00:49;;;;;;;4.70;4.30;;;26.90;99.90;;;;;;5055501;28;20736;-78
2021/06/26 11:03:30;;;;;;;10.07;4.23;;;26.90;99.90;;;;;;5055129;28;20413;-78
2021/06/26 11:06:36;;;;;;;6.47;4.37;;;27.00;99.90;;;;;;5054668;28;20490;-78
2021/06/26 11:09:07;;;;;;;9.83;4.20;;;26.80;99.90;;;;;;5063593;28;20505;-78
2021/06/26 11:11:48;;;;;;;5.10;3.20;;;27.00;99.90;;;;;;5056138;28;20457;-78
2021/06/26 11:14:26;;;;;;;4.33;3.67;;;26.80;99.90;;;;;;5055041;28;20420;-78
2021/06/26 11:17:45;;;;;;;6.40;4.27;;;26.90;99.90;;;;;;5054662;28;20505;-77
2021/06/26 11:20:25;;;;;;;6.93;4.00;;;26.80;99.90;;;;;;5032640;28;20433;-77
2021/06/26 11:22:56;;;;;;;4.83;4.17;;;26.80;99.90;;;;;;5027977;28;20426;-78
2021/06/26 11:25:26;;;;;;;7.73;4.43;;;26.80;99.90;;;;;;5032341;28;20567;-77
2021/06/26 11:28:08;;;;;;;4.23;3.83;;;26.90;99.90;;;;;;5032762;28;20398;-77
2021/06/26 11:31:07;;;;;;;8.10;4.60;;;27.00;99.90;;;;;;5026726;28;20818;-78
2021/06/26 11:33:49;;;;;;;5.77;4.30;;;27.30;99.90;;;;;;5032516;28;20410;-78
2021/06/26 11:36:36;;;;;;;3.93;3.40;;;27.20;99.90;;;;;;5032065;28;20473;-78
2021/06/26 11:39:20;;;;;;;13.07;4.63;;;27.20;99.90;;;;;;5032472;28;20418;-78
2021/06/26 11:42:37;;;;;;;10.37;4.70;;;27.10;99.90;;;;;;5032068;28;20435;-78
2021/06/26 11:45:14;;;;;;;7.80;4.17;;;27.00;99.90;;;;;;5032460;28;20402;-78
2021/06/26 11:48:13;;;;;;;4.77;3.97;;;27.00;99.90;;;;;;5032242;28;20507;-78
2021/06/26 11:51:09;;;;;;;6.97;4.10;;;27.00;99.90;;;;;;5032104;28;20402;-78
2021/06/26 11:54:01;;;;;;;5.03;4.00;;;27.20;99.90;;;;;;5031843;28;20818;-78
2021/06/26 11:56:37;;;;;;;4.80;4.00;;;27.20;99.90;;;;;;5054509;28;20424;-79
2021/06/26 11:59:10;;;;;;;4.90;3.20;;;27.40;99.90;;;;;;5054006;28;20398;-78
2021/06/26 12:02:01;;;;;;;10.03;4.10;;;27.50;99.90;;;;;;5054255;28;20396;-77
2021/06/26 12:04:31;;;;;;;9.93;4.40;;;27.50;99.90;;;;;;5053023;28;20397;-77
2021/06/26 12:06:58;;;;;;;7.70;4.10;;;27.70;99.90;;;;;;5071156;28;20415;-75
2021/06/26 12:09:25;;;;;;;3.83;3.47;;;28.00;99.90;;;;;;5064916;28;20796;-74
2021/06/26 12:11:51;;;;;;;4.20;3.80;;;28.20;99.90;;;;;;5064164;28;20441;-75
2021/06/26 12:14:28;;;;;;;24.83;6.37;;;28.50;99.90;;;;;;5072626;28;20387;-76
2021/06/26 12:17:06;;;;;;;3.53;3.23;;;28.70;99.90;;;;;;5066569;28;20803;-77
2021/06/26 12:19:38;;;;;;;5.67;3.97;;;28.80;99.90;;;;;;5068703;28;20812;-76
2021/06/26 12:22:06;;;;;;;11.87;4.07;;;28.80;99.90;;;;;;5053795;28;20411;-76
2021/06/26 12:24:44;;;;;;;8.33;4.13;;;28.90;99.90;;;;;;5058127;28;20414;-76
2021/06/26 12:27:43;;;;;;;4.20;3.63;;;28.90;99.90;;;;;;5053516;28;20428;-78
2021/06/26 12:30:17;;;;;;;5.50;3.40;;;29.00;99.90;;;;;;5056449;28;20433;-74
2021/06/26 12:32:44;;;;;;;9.97;4.10;;;29.30;99.90;;;;;;5062300;28;20501;-74
2021/06/26 12:35:15;;;;;;;3.80;3.50;;;29.60;99.90;;;;;;5073136;28;20421;-74
2021/06/26 12:37:46;;;;;;;5.70;3.23;;;29.90;99.90;;;;;;5054414;28;20429;-74
2021/06/26 12:40:20;;;;;;;4.77;3.20;;;30.00;99.90;;;;;;5052998;28;20408;-74
2021/06/26 12:43:05;;;;;;;3.60;3.30;;;30.00;99.90;;;;;;5053409;28;20457;-74
2021/06/26 12:45:36;;;;;;;4.43;3.90;;;30.00;99.90;;;;;;5072460;28;20544;-74
2021/06/26 12:48:09;;;;;;;9.80;4.13;;;29.90;99.90;;;;;;5064656;28;20425;-74
2021/06/26 12:51:05;;;;;;;5.63;4.30;;;29.90;99.90;;;;;;5051900;28;20425;-74
2021/06/26 12:53:40;;;;;;;3.80;3.50;;;29.90;99.90;;;;;;5053478;28;20473;-74
2021/06/26 12:56:19;;;;;;;4.23;3.83;;;30.20;99.90;;;;;;5052891;28;20425;-74
2021/06/26 12:59:05;;;;;;;5.03;4.20;;;30.50;99.90;;;;;;5053457;28;20449;-74
2021/06/26 13:01:47;;;;;;;4.83;3.30;;;30.80;99.90;;;;;;5053500;28;20477;-77
2021/06/26 13:04:17;;;;;;;3.43;3.13;;;30.90;99.90;;;;;;5054036;28;20414;-77
2021/06/26 13:06:52;;;;;;;11.23;3.53;;;31.00;99.90;;;;;;5053236;28;20391;-77
2021/06/26 13:09:19;;;;;;;3.70;3.27;;;31.00;99.90;;;;;;5051724;28;20437;-76
2021/06/26 13:11:55;;;;;;;5.17;3.50;;;31.10;99.90;;;;;;5052861;28;20442;-77
2021/06/26 13:14:25;;;;;;;8.87;3.80;;;31.00;99.90;;;;;;5053849;28;20885;-77
2021/06/26 13:16:54;;;;;;;3.77;3.30;;;30.90;99.90;;;;;;5073210;28;20398;-77
2021/06/26 13:19:26;;;;;;;5.73;3.90;;;;;;;;;;5073168;28;20394;-77
2021/06/26 13:21:55;;;;;;;4.40;3.50;;;30.60;99.90;;;;;;5072923;28;20447;-77
2021/06/26 13:24:25;;;;;;;5.60;3.50;;;30.70;99.90;;;;;;5073045;28;20780;-77
2021/06/26 13:26:55;;;;;;;5.23;3.20;;;30.70;99.90;;;;;;5072845;28;20401;-77
2021/06/26 13:29:22;;;;;;;8.33;3.50;;;30.80;99.90;;;;;;5073151;28;20448;-77
2021/06/26 13:31:48;;;;;;;3.57;3.27;;;30.50;99.90;;;;;;5073153;28;20472;-73
2021/06/26 13:34:14;;;;;;;3.33;3.13;;;30.80;99.90;;;;;;5072669;28;20404;-73
2021/06/26 13:36:40;;;;;;;6.23;3.70;;;;;;;;;;5066239;28;20473;-73
2021/06/26 13:39:06;;;;;;;11.13;3.53;;;31.20;99.90;;;;;;5072695;28;20396;-74
2021/06/26 13:41:33;;;;;;;3.07;2.77;;;31.10;99.90;;;;;;5069212;28;20464;-74
2021/06/26 13:44:02;;;;;;;4.70;3.50;;;31.20;99.90;;;;;;5052728;28;20413;-74
2021/06/26 13:46:31;;;;;;;3.50;3.20;;;31.60;99.90;;;;;;5052382;28;20475;-74
2021/06/26 13:48:57;;;;;;;4.50;2.80;;;31.70;99.90;;;;;;5054371;28;20544;-74
2021/06/26 13:51:23;;;;;;;3.50;3.20;;;;;;;;;;5072677;28;20535;-74
2021/06/26 13:53:50;;;;;;;3.10;2.90;;;31.90;99.90;;;;;;5068507;28;20171;-74
2021/06/26 13:56:16;;;;;;;4.67;3.70;;;32.00;99.90;;;;;;5060700;28;20525;-74
2021/06/26 13:58:42;;;;;;;9.23;3.60;;;;;;;;;;5054933;28;20422;-74
2021/06/26 14:01:15;;;;;;;3.47;3.10;;;31.60;99.90;;;;;;5052182;28;20422;-74
2021/06/26 14:03:41;;;;;;;3.00;2.80;;;31.50;99.90;;;;;;5052374;28;20456;-71
2021/06/26 14:06:07;;;;;;;6.23;4.03;;;31.30;99.90;;;;;;5051980;28;20391;-71